createdAt,value
2016-05-28T14:14:47.254Z,48.42
2016-05-28T14:29:40.662Z,50.71
2016-05-28T14:44:42.708Z,48.48
2016-05-28T14:59:42.672Z,47.34
2016-05-28T15:14:42.773Z,47.86
2016-05-28T15:29:59.361Z,49.32
2016-05-28T15:44:49.917Z,47.82
2016-05-28T15:59:42.677Z,48.54
2016-05-28T16:14:40.717Z,48.29
2016-05-28T16:29:44.788Z,49.55
2016-05-28T16:44:40.688Z,50.22
2016-05-28T16:59:40.681Z,50.51
2016-05-28T17:14:53.284Z,52.35
2016-05-28T17:29:42.793Z,52.24
2016-05-28T17:44:55.443Z,53.38
2016-05-28T17:59:40.703Z,53.45
2016-05-28T18:14:42.836Z,54.86
2016-05-28T18:29:40.767Z,56.31
2016-05-28T18:44:40.698Z,57.14
2016-05-28T18:59:42.878Z,58.38
2016-05-28T19:14:53.138Z,60.35
2016-05-28T19:29:40.787Z,61.81
2016-05-28T19:44:40.796Z,63.04
2016-05-28T19:59:44.962Z,63.13
2016-05-28T20:14:49.034Z,63.41
2016-05-28T20:29:40.809Z,63.93
2016-05-28T20:44:42.897Z,63.75
2016-05-28T20:59:45.015Z,64.17
2016-05-28T21:14:40.758Z,63.86
2016-05-28T21:29:49.173Z,64.08
2016-05-28T21:44:53.182Z,64.9
2016-05-28T21:59:42.785Z,65.58
2016-05-28T22:02:59.684Z,66
2016-05-28T22:17:54.552Z,65.74
2016-05-28T22:32:48.186Z,66.44
2016-05-28T22:47:50.180Z,67.96
2016-05-28T23:02:50.252Z,68.37
2016-05-28T23:17:52.198Z,68.72
2016-05-28T23:32:50.501Z,70.17
2016-05-28T23:47:49.400Z,70.92
